Time;durP1;ratioP1;P1;durP2;ratioP2;P2;SDS_P1;SDS_P2;PMS_P1;PMS_P2;Temp;Humidity;BMP_temperature;BMP_pressure;BME280_temperature;BME280_humidity;BME280_pressure;Samples;Min_cycle;Max_cycle;Signal;HPM_P1;HPM_P2
2022/06/18 00:00:55;;;;;;;11.88;10.52;;;;;;;21.14;86.76;100173.19;5091012;28;20509;-28
2022/06/18 00:03:22;;;;;;;13.95;11.38;;;;;;;21.48;84.95;100152.53;5090223;28;20040;-29
2022/06/18 00:05:50;;;;;;;13.05;11.70;;;;;;;21.43;85.46;100164.22;5109594;28;20104;-29
2022/06/18 00:08:19;;;;;;;13.75;10.45;;;;;;;21.04;87.27;100170.59;5091156;28;20036;-28
2022/06/18 00:10:46;;;;;;;12.05;10.73;;;;;;;21.11;86.37;100164.84;5091079;28;20035;-35
2022/06/18 00:16:00;;;;;;;12.23;10.30;;;;;;;20.92;87.42;100157.41;5109479;28;20417;-28
2022/06/18 00:18:25;;;;;;;12.02;10.88;;;;;;;20.87;87.87;100155.56;5090843;28;20036;-29
2022/06/18 00:20:51;;;;;;;12.15;10.38;;;;;;;20.98;87.58;100153.56;5109312;28;20034;-29
2022/06/18 00:23:17;;;;;;;12.07;10.82;;;;;;;21.04;87.01;100159.75;5090098;28;20038;-31
2022/06/18 00:25:46;;;;;;;12.15;10.90;;;;;;;21.01;86.95;100153.00;5108896;28;20483;-28
2022/06/18 00:28:24;;;;;;;13.70;11.23;;;;;;;21.02;86.68;100157.34;5090526;28;20536;-35
2022/06/18 00:30:51;;;;;;;13.00;11.18;;;;;;;20.66;88.63;100137.88;5109173;28;20574;-31
2022/06/18 00:33:17;;;;;;;13.00;11.20;;;;;;;20.69;89.05;100126.44;5090369;28;20028;-29
2022/06/18 00:35:44;;;;;;;12.88;11.23;;;;;;;20.75;88.99;100125.31;5090299;28;20118;-28
2022/06/18 00:38:25;;;;;;;13.30;11.32;;;;;;;21.02;88.77;100162.75;5090671;28;20032;-28
2022/06/18 00:40:52;;;;;;;14.52;13.02;;;;;;;20.76;87.47;100137.78;5108712;28;20028;-33
2022/06/18 00:43:44;;;;;;;14.07;12.68;;;;;;;20.74;88.45;100160.81;5090414;28;20476;-30
2022/06/18 00:46:49;;;;;;;13.60;12.05;;;;;;;20.86;86.51;100156.66;5090632;28;20070;-28
2022/06/18 00:49:23;;;;;;;14.82;12.70;;;;;;;20.81;87.54;100161.31;5108548;28;20023;-30
2022/06/18 00:52:09;;;;;;;14.63;13.10;;;;;;;20.75;88.93;100163.25;5109148;28;20026;-28
2022/06/18 00:55:09;;;;;;;13.95;12.55;;;;;;;20.91;88.67;100157.72;5090379;28;20039;-29
2022/06/18 00:57:54;;;;;;;14.32;12.82;;;;;;;21.08;86.53;100149.94;5108404;28;20024;-28
2022/06/18 01:00:24;;;;;;;13.80;12.38;;;;;;;21.05;86.91;100118.00;5109039;28;20069;-27
2022/06/18 01:02:52;;;;;;;15.30;13.32;;;;;;;21.27;87.41;100148.13;5090235;28;20038;-28
2022/06/18 01:05:24;;;;;;;12.90;11.52;;;;;;;21.23;86.00;100144.38;5108533;28;20051;-28
2022/06/18 01:07:59;;;;;;;14.60;12.80;;;;;;;21.19;85.78;100140.63;5090099;28;20051;-29
2022/06/18 01:10:37;;;;;;;14.55;13.05;;;;;;;21.28;86.26;100144.28;5090217;28;20035;-31
2022/06/18 01:13:07;;;;;;;14.07;12.57;;;;;;;21.16;87.29;100134.94;5089872;28;20032;-30
2022/06/18 01:15:33;;;;;;;15.98;13.00;;;;;;;21.09;88.03;100134.50;5108277;28;20034;-28
2022/06/18 01:18:01;;;;;;;13.50;12.10;;;;;;;20.69;88.76;100115.63;5089935;28;20527;-29
2022/06/18 01:20:26;;;;;;;13.70;12.27;;;;;;;21.12;86.50;100129.28;5108466;28;20106;-31
2022/06/18 01:23:12;;;;;;;14.50;12.25;;;;;;;21.19;86.54;100124.34;5108276;28;20463;-28
2022/06/18 01:25:38;;;;;;;13.90;12.50;;;;;;;21.05;85.94;100105.22;5089979;28;20038;-28
2022/06/18 01:28:03;;;;;;;12.80;11.45;;;;;;;20.94;85.67;100090.16;5108158;28;20403;-28
2022/06/18 01:30:36;;;;;;;13.55;12.15;;;;;;;20.71;89.41;100113.44;5108180;28;20111;-30
2022/06/18 01:33:06;;;;;;;14.38;12.68;;;;;;;20.70;90.95;100102.88;5089098;28;20781;-28
2022/06/18 01:35:33;;;;;;;15.32;13.73;;;;;;;21.08;89.56;100101.13;5088698;28;20047;-31
2022/06/18 01:37:59;;;;;;;15.52;13.02;;;;;;;21.20;89.82;100115.09;5089588;28;20031;-27
2022/06/18 01:40:33;;;;;;;15.00;13.23;;;;;;;21.40;87.83;100113.25;5107994;28;20461;-29
2022/06/18 01:43:01;;;;;;;15.45;13.30;;;;;;;21.27;87.36;100115.56;5107994;28;20077;-28
2022/06/18 01:45:32;;;;;;;13.98;12.50;;;;;;;21.17;86.82;100121.09;5089224;28;20126;-30
2022/06/18 01:48:16;;;;;;;15.48;13.13;;;;;;;21.08;86.88;100114.69;5089419;28;20031;-31
2022/06/18 01:51:00;;;;;;;14.10;12.70;;;;;;;21.09;87.12;100119.03;5089330;28;20042;-31
2022/06/18 01:53:31;;;;;;;14.27;12.80;;;;;;;20.90;87.18;100104.56;5107552;28;20672;-27
2022/06/18 01:56:20;;;;;;;14.75;13.25;;;;;;;21.19;87.29;100118.91;5088965;28;20023;-32
2022/06/18 01:58:55;;;;;;;15.05;12.77;;;;;;;21.23;86.69;100122.66;5107844;28;20020;-29
2022/06/18 02:01:27;;;;;;;17.20;13.30;;;;;;;21.02;86.13;100118.53;5089056;28;20035;-27
2022/06/18 02:03:55;;;;;;;15.82;12.85;;;;;;;20.96;86.06;100130.53;5089108;28;20158;-32
2022/06/18 02:06:21;;;;;;;13.48;12.07;;;;;;;21.07;85.19;100122.03;5088851;28;20023;-28
2022/06/18 02:08:47;;;;;;;14.80;13.40;;;;;;;21.21;85.24;100122.16;5089166;28;20035;-28
2022/06/18 02:11:16;;;;;;;15.25;13.63;;;;;;;21.06;86.41;100116.88;5088653;28;20511;-36
2022/06/18 02:13:49;;;;;;;15.07;13.48;;;;;;;21.22;85.39;100107.47;5107223;28;20035;-29
2022/06/18 02:16:17;;;;;;;15.50;14.00;;;;;;;21.42;84.43;100113.78;5107056;28;20027;-28
2022/06/18 02:18:46;;;;;;;16.73;14.93;;;;;;;21.31;84.66;100115.81;5088713;28;20042;-28
2022/06/18 02:21:14;;;;;;;15.73;13.65;;;;;;;21.28;85.69;100117.16;5088548;28;20446;-30
2022/06/18 02:23:40;;;;;;;;;;;;;;;20.67;88.34;100107.75;5107829;28;20494;-28
2022/06/18 02:26:07;;;;;;;13.98;12.48;;;;;;;20.48;88.92;100088.66;5107296;28;19908;-27
2022/06/18 02:28:41;;;;;;;15.63;13.35;;;;;;;20.55;89.20;100104.59;5088643;28;20035;-29
2022/06/18 02:31:15;;;;;;;14.13;11.98;;;;;;;20.36;88.55;100085.53;5088239;28;20126;-28
2022/06/18 02:33:49;;;;;;;14.88;13.27;;;;;;;20.76;86.75;100102.56;5088865;28;20031;-28
2022/06/18 02:36:20;;;;;;;16.45;13.25;;;;;;;21.00;86.13;100110.72;5088515;28;20023;-30
2022/06/18 02:38:47;;;;;;;15.65;14.13;;;;;;;20.97;86.39;100111.28;5088643;28;20193;-28
2022/06/18 02:41:13;;;;;;;14.85;12.88;;;;;;;20.81;86.52;100107.91;5088288;28;20733;-32
2022/06/18 02:43:41;;;;;;;17.17;13.38;;;;;;;20.79;85.93;100099.25;5088306;28;20564;-31
2022/06/18 02:46:07;;;;;;;16.63;14.18;;;;;;;21.06;85.64;100116.88;5088296;28;20092;-28
2022/06/18 02:48:36;;;;;;;15.35;13.77;;;;;;;20.93;85.43;100104.00;5088555;28;20090;-30
2022/06/18 02:51:03;;;;;;;15.82;14.20;;;;;;;20.63;87.48;100109.44;5088238;28;20035;-29
2022/06/18 02:53:29;;;;;;;17.00;13.77;;;;;;;20.50;88.02;100096.53;5106769;28;20036;-27
2022/06/18 02:55:59;;;;;;;14.25;12.75;;;;;;;20.47;88.59;100119.56;5088213;28;20089;-27
2022/06/18 02:58:31;;;;;;;15.27;13.45;;;;;;;20.73;86.95;100097.69;5087924;28;20728;-27
2022/06/18 03:01:07;;;;;;;15.63;14.02;;;;;;;21.03;85.08;100120.97;5088059;28;20042;-27
2022/06/18 03:03:38;;;;;;;17.35;14.32;;;;;;;21.06;85.25;100111.44;5084614;28;20060;-31
2022/06/18 03:06:04;;;;;;;17.95;14.15;;;;;;;20.81;86.36;100115.25;5085084;28;20024;-29
2022/06/18 03:08:32;;;;;;;14.20;12.73;;;;;;;20.36;88.56;100120.72;5086897;28;20035;-28
2022/06/18 03:13:43;;;;;;;17.58;13.80;;;;;;;20.41;87.40;100093.63;5086578;28;20660;-30
2022/06/18 03:16:11;;;;;;;16.08;13.45;;;;;;;20.57;89.32;100134.91;5084760;28;20031;-31
2022/06/18 03:18:38;;;;;;;15.20;12.13;;;;;;;20.57;88.31;100134.13;5086295;28;20046;-28
2022/06/18 03:21:18;;;;;;;15.48;11.45;;;;;;;20.37;89.34;100127.78;5084439;28;20031;-27
2022/06/18 03:23:44;;;;;;;14.15;12.13;;;;;;;20.54;88.19;100123.84;5086233;28;20187;-28
2022/06/18 03:26:10;;;;;;;14.02;12.57;;;;;;;20.58;87.50;100124.91;5084712;28;20032;-31
2022/06/18 03:28:36;;;;;;;14.48;12.73;;;;;;;20.56;87.72;100135.22;5085832;28;20054;-34
2022/06/18 03:31:01;;;;;;;15.93;12.85;;;;;;;20.54;88.33;100134.69;5084506;28;20089;-29
2022/06/18 03:33:27;;;;;;;13.88;12.43;;;;;;;20.31;89.12;100126.19;5085750;28;20059;-27
2022/06/18 03:35:53;;;;;;;14.57;12.07;;;;;;;20.31;89.34;100125.38;5083824;28;20484;-29
2022/06/18 03:38:19;;;;;;;15.63;12.82;;;;;;;20.32;89.57;100116.16;5086056;28;20038;-30
2022/06/18 03:40:46;;;;;;;16.50;13.45;;;;;;;20.20;90.37;100140.88;5084289;28;20035;-29
2022/06/18 03:43:12;;;;;;;16.83;13.00;;;;;;;20.04;90.49;100146.41;5084131;28;20139;-29
2022/06/18 03:45:42;;;;;;;16.45;12.98;;;;;;;19.94;91.67;100142.94;5085559;28;20081;-31
2022/06/18 03:48:16;;;;;;;15.63;13.48;;;;;;;20.10;91.62;100140.97;5084378;28;20065;-30
2022/06/18 03:50:41;;;;;;;20.27;15.48;;;;;;;20.18;90.78;100132.25;5084125;28;20024;-28
2022/06/18 03:53:09;;;;;;;19.33;14.98;;;;;;;20.14;91.10;100136.59;5084103;28;20407;-29
2022/06/18 03:55:34;;;;;;;17.70;15.32;;;;;;;20.10;92.06;100146.38;5083980;28;20030;-28
2022/06/18 03:58:00;;;;;;;17.83;14.68;;;;;;;20.05;92.14;100123.66;5085797;28;20147;-33
2022/06/18 04:00:25;;;;;;;20.30;15.38;;;;;;;20.13;93.34;100145.81;5087786;28;20035;-33
2022/06/18 04:02:50;;;;;;;19.20;15.75;;;;;;;20.36;92.87;100142.41;5087563;28;20112;-29
2022/06/18 04:05:16;;;;;;;17.83;15.93;;;;;;;20.34;91.08;100141.88;5107829;28;20048;-28
2022/06/18 04:07:42;;;;;;;18.02;16.17;;;;;;;20.32;91.75;100141.34;5109536;28;20052;-30
2022/06/18 04:10:13;;;;;;;18.35;15.35;;;;;;;20.52;91.95;100147.72;5091064;28;20127;-29
2022/06/18 04:12:39;;;;;;;18.05;15.65;;;;;;;20.54;91.23;100145.53;5090950;28;20034;-30
2022/06/18 04:15:04;;;;;;;20.90;15.88;;;;;;;20.58;91.29;100146.59;5109246;28;20027;-28
2022/06/18 04:17:30;;;;;;;20.52;16.63;;;;;;;20.47;91.84;100130.41;5090821;28;20034;-29
2022/06/18 04:19:55;;;;;;;18.60;15.93;;;;;;;20.56;92.70;100160.41;5109630;28;20032;-31
2022/06/18 04:22:22;;;;;;;18.65;16.70;;;;;;;20.67;92.21;100156.53;5109436;28;20102;-32
2022/06/18 04:24:47;;;;;;;18.02;16.17;;;;;;;20.76;90.79;100166.75;5109627;28;20082;-28
2022/06/18 04:27:13;;;;;;;17.50;15.80;;;;;;;20.81;90.38;100161.31;5090592;28;20479;-29
2022/06/18 04:29:38;;;;;;;17.55;15.65;;;;;;;20.81;90.28;100156.69;5109052;28;20369;-29
2022/06/18 04:32:04;;;;;;;20.67;16.20;;;;;;;21.01;89.33;100160.31;5109110;28;20503;-28
2022/06/18 04:34:29;;;;;;;18.05;16.15;;;;;;;20.92;89.08;100146.56;5109138;28;20027;-32
2022/06/18 04:36:55;;;;;;;18.23;15.48;;;;;;;20.90;90.01;100170.44;5109248;28;20099;-28
2022/06/18 04:39:20;;;;;;;18.10;15.90;;;;;;;21.06;88.94;100171.09;5108585;28;20047;-27
2022/06/18 04:41:46;;;;;;;21.38;16.77;;;;;;;20.92;89.90;100157.41;5108804;28;20479;-27
2022/06/18 04:44:12;;;;;;;18.33;16.42;;;;;;;20.67;90.76;100161.94;5108751;28;20038;-28
2022/06/18 04:46:38;;;;;;;18.80;15.57;;;;;;;20.81;90.31;100167.53;5108522;28;20043;-30
2022/06/18 04:49:03;;;;;;;21.65;15.93;;;;;;;20.79;89.10;100156.16;5108541;28;20028;-29
2022/06/18 04:51:29;;;;;;;18.83;16.73;;;;;;;20.79;90.29;100156.16;5108883;28;20020;-32
2022/06/18 04:53:55;;;;;;;23.58;17.83;;;;;;;20.96;90.52;100179.34;5108792;28;20027;-28
2022/06/18 04:56:20;;;;;;;22.23;18.33;;;;;;;20.72;92.60;100173.84;5108640;28;20031;-29
2022/06/18 04:58:46;;;;;;;20.48;17.98;;;;;;;20.70;93.09;100176.88;5090147;28;20422;-28
2022/06/18 05:01:20;;;;;;;21.30;18.83;;;;;;;20.49;94.50;100176.16;5107944;28;20479;-31
2022/06/18 05:03:45;;;;;;;21.60;18.77;;;;;;;20.56;94.67;100173.16;5108363;28;20070;-28
2022/06/18 05:06:11;;;;;;;21.00;17.88;;;;;;;20.70;94.15;100155.19;5108465;28;20780;-31
2022/06/18 05:08:37;;;;;;;19.05;17.15;;;;;;;20.80;92.75;100171.34;5089899;28;20035;-31
2022/06/18 05:11:02;;;;;;;18.30;16.40;;;;;;;20.97;92.90;100176.34;5107991;28;20032;-31
2022/06/18 05:13:29;;;;;;;19.30;16.95;;;;;;;21.25;90.25;100182.84;5108219;28;20057;-28
2022/06/18 05:15:56;;;;;;;18.48;16.58;;;;;;;21.37;89.72;100192.47;5108181;28;20019;-29
2022/06/18 05:18:23;;;;;;;17.92;16.15;;;;;;;21.44;87.25;100190.28;5089602;28;20036;-30
2022/06/18 05:20:52;;;;;;;17.93;15.83;;;;;;;21.51;87.40;100184.50;5108286;28;20027;-28
2022/06/18 05:23:18;;;;;;;18.42;16.27;;;;;;;21.74;87.85;100191.00;5089280;28;20035;-31
2022/06/18 05:25:45;;;;;;;16.02;14.43;;;;;;;21.81;85.06;100181.41;5089632;28;20032;-28
2022/06/18 05:28:12;;;;;;;20.63;16.90;;;;;;;21.84;85.34;100196.31;5089326;28;20023;-29
2022/06/18 05:30:38;;;;;;;17.23;15.47;;;;;;;21.80;84.10;100182.53;5089430;28;20030;-32
2022/06/18 05:33:04;;;;;;;18.65;15.50;;;;;;;21.78;85.33;100181.19;5089528;28;20414;-28
2022/06/18 05:35:31;;;;;;;15.57;14.07;;;;;;;21.83;83.13;100197.44;5107926;28;20035;-28
2022/06/18 05:37:57;;;;;;;20.10;14.90;;;;;;;21.80;84.64;100181.69;5089520;28;20463;-27
2022/06/18 05:40:23;;;;;;;19.67;14.50;;;;;;;21.83;83.15;100192.78;5107966;28;20091;-31
2022/06/18 05:42:48;;;;;;;15.77;14.20;;;;;;;22.23;82.05;100195.25;5107935;28;20035;-29
2022/06/18 05:45:13;;;;;;;16.27;13.48;;;;;;;22.40;78.55;100194.78;5107247;28;20140;-28
2022/06/18 05:47:39;;;;;;;15.73;14.13;;;;;;;22.11;81.23;100175.84;5107790;28;20114;-28
2022/06/18 05:50:07;;;;;;;16.50;14.80;;;;;;;22.46;79.94;100205.28;5107823;28;20387;-27
2022/06/18 05:52:33;;;;;;;15.75;14.05;;;;;;;22.43;80.79;100211.31;5107389;28;20046;-33
2022/06/18 05:54:58;;;;;;;15.98;14.15;;;;;;;22.30;79.88;100214.75;5088935;28;20031;-27
2022/06/18 05:57:25;;;;;;;20.58;15.05;;;;;;;22.28;80.68;100214.22;5107008;28;20024;-33
2022/06/18 05:59:51;;;;;;;16.02;14.15;;;;;;;22.14;81.12;100216.03;5088802;28;20096;-29
2022/06/18 06:02:18;;;;;;;16.67;14.95;;;;;;;22.44;80.32;100228.41;5107398;28;20040;-29
2022/06/18 06:04:44;;;;;;;17.25;15.45;;;;;;;22.56;81.48;100225.25;5084563;28;20586;-30
2022/06/18 06:07:14;;;;;;;18.38;16.27;;;;;;;22.43;82.27;100226.78;5086765;28;20040;-29
2022/06/18 06:12:24;;;;;;;18.73;16.83;;;;;;;22.78;78.90;100219.19;5086755;28;20055;-28
2022/06/18 06:14:50;;;;;;;17.33;15.63;;;;;;;22.68;80.61;100231.03;5086871;28;20020;-34
2022/06/18 06:17:21;;;;;;;17.63;15.30;;;;;;;22.94;79.37;100241.50;5086335;28;20487;-28
2022/06/18 06:19:46;;;;;;;22.02;19.58;;;;;;;23.01;78.87;100231.88;5085312;28;20107;-28
2022/06/18 06:22:12;;;;;;;16.63;14.93;;;;;;;23.06;78.58;100247.31;5084347;28;20035;-33
2022/06/18 06:24:37;;;;;;;16.38;14.77;;;;;;;22.80;79.30;100234.13;5086549;28;20473;-33
2022/06/18 06:27:04;;;;;;;15.20;13.65;;;;;;;22.75;77.90;100239.63;5085066;28;20066;-31
2022/06/18 06:29:29;;;;;;;16.50;14.15;;;;;;;22.85;76.99;100244.91;5085343;28;20055;-29
2022/06/18 06:31:54;;;;;;;18.27;14.30;;;;;;;22.96;77.03;100239.28;5086745;28;20086;-30
2022/06/18 06:34:20;;;;;;;19.27;16.20;;;;;;;23.20;76.51;100225.59;5086851;28;20028;-29
2022/06/18 06:36:46;;;;;;;18.77;15.07;;;;;;;23.17;73.78;100245.22;5086450;28;20027;-28
2022/06/18 06:39:11;;;;;;;16.92;15.20;;;;;;;23.29;77.03;100242.00;5086005;28;20110;-33
2022/06/18 06:41:36;;;;;;;16.25;14.60;;;;;;;23.43;76.48;100226.50;5085132;28;20028;-28
2022/06/18 06:44:02;;;;;;;17.00;15.32;;;;;;;23.64;75.99;100248.72;5085221;28;20024;-30
2022/06/18 06:46:28;;;;;;;22.52;15.88;;;;;;;23.79;74.89;100247.66;5085160;28;20039;-31
2022/06/18 06:48:53;;;;;;;17.50;15.50;;;;;;;23.81;74.54;100251.66;5086621;28;20046;-30
2022/06/18 06:51:26;;;;;;;17.38;14.40;;;;;;;24.02;73.49;100254.78;5086022;28;20759;-29
2022/06/18 06:53:51;;;;;;;18.40;13.63;;;;;;;24.21;71.53;100248.41;5084749;28;20059;-29
2022/06/18 06:59:06;;;;;;;14.70;13.20;;;;;;;24.44;69.44;100244.63;5085855;28;20038;-33
2022/06/18 07:01:31;;;;;;;16.95;14.73;;;;;;;24.37;73.21;100248.88;5085756;28;20040;-33
2022/06/18 07:03:57;;;;;;;17.00;15.20;;;;;;;24.40;70.49;100259.19;5084337;28;20059;-29
2022/06/18 07:06:23;;;;;;;16.20;14.60;;;;;;;24.51;70.88;100254.31;5085880;28;20039;-29
2022/06/18 07:08:49;;;;;;;18.23;15.02;;;;;;;24.63;70.74;100244.47;5086018;28;20040;-31
2022/06/18 07:11:15;;;;;;;15.07;13.40;;;;;;;24.81;68.06;100248.16;5085647;28;20047;-30
2022/06/18 07:13:41;;;;;;;15.80;14.25;;;;;;;24.72;69.94;100252.72;5085899;28;20028;-30
2022/06/18 07:16:08;;;;;;;15.45;13.93;;;;;;;24.64;68.79;100253.44;5085619;28;20117;-31
2022/06/18 07:18:35;;;;;;;;;;;;;;;24.93;67.55;100265.84;5084652;28;20528;-28
2022/06/18 07:21:02;;;;;;;15.52;13.57;;;;;;;25.02;65.56;100264.81;5085408;28;19939;-36
2022/06/18 07:23:28;;;;;;;14.98;13.40;;;;;;;25.20;65.47;100259.47;5084395;28;20032;-30
2022/06/18 07:25:54;;;;;;;18.70;12.80;;;;;;;25.29;65.77;100262.28;5085764;28;20415;-31
2022/06/18 07:28:20;;;;;;;15.85;12.07;;;;;;;25.17;65.57;100244.53;5085777;28;20403;-29
2022/06/18 07:30:46;;;;;;;13.07;10.80;;;;;;;25.50;65.28;100263.34;5084044;28;20020;-31
2022/06/18 07:33:15;;;;;;;10.95;9.95;;;;;;;25.63;59.41;100259.72;5084287;28;20020;-35
2022/06/18 07:35:40;;;;;;;11.88;10.15;;;;;;;25.62;62.87;100251.81;5087884;28;20035;-31
2022/06/18 07:38:06;;;;;;;11.65;10.10;;;;;;;26.06;60.01;100242.66;5088139;28;20028;-30
2022/06/18 07:40:36;;;;;;;13.27;10.45;;;;;;;25.49;60.31;100239.09;5089541;28;20020;-28
2022/06/18 07:43:06;;;;;;;11.48;10.27;;;;;;;25.48;61.87;100260.13;5087870;28;20028;-34
2022/06/18 07:45:31;;;;;;;11.75;10.65;;;;;;;25.64;62.31;100241.38;5088044;28;20119;-29
2022/06/18 07:47:57;;;;;;;10.90;9.80;;;;;;;25.82;60.43;100256.72;5089025;28;20107;-30
2022/06/18 07:50:23;;;;;;;12.90;10.13;;;;;;;26.03;60.91;100239.75;5087876;28;20048;-28
2022/06/18 07:52:49;;;;;;;12.13;10.52;;;;;;;25.98;61.22;100257.13;5087517;28;20024;-29
2022/06/18 07:55:19;;;;;;;12.52;11.20;;;;;;;25.56;62.27;100228.50;5087574;28;20048;-31
2022/06/18 07:57:46;;;;;;;11.77;10.30;;;;;;;25.86;61.33;100248.69;5089706;28;20028;-34
2022/06/18 08:00:15;;;;;;;10.13;9.13;;;;;;;26.11;59.73;100243.63;5087731;28;20089;-30
2022/06/18 08:02:42;;;;;;;9.50;8.13;;;;;;;26.09;58.69;100246.69;5088956;28;20126;-32
2022/06/18 08:05:08;;;;;;;10.90;9.77;;;;;;;26.13;59.86;100244.91;5087539;28;20052;-30
2022/06/18 08:07:34;;;;;;;11.55;9.95;;;;;;;26.16;59.53;100265.38;5087886;28;20032;-28
2022/06/18 08:09:59;;;;;;;9.82;8.90;;;;;;;25.98;61.40;100267.25;5089226;28;20419;-28
2022/06/18 08:12:25;;;;;;;10.27;9.20;;;;;;;25.98;59.72;100259.06;5087598;28;20480;-32
2022/06/18 08:14:50;;;;;;;10.40;9.23;;;;;;;25.79;59.74;100270.22;5087199;28;20024;-29
2022/06/18 08:17:16;;;;;;;10.25;9.25;;;;;;;26.21;59.06;100270.66;5086750;28;20412;-28
2022/06/18 08:19:41;;;;;;;13.88;9.88;;;;;;;26.28;58.87;100271.00;5088472;28;20032;-32
2022/06/18 08:22:07;;;;;;;12.77;11.20;;;;;;;25.85;61.57;100252.56;5088508;28;20035;-29
2022/06/18 08:24:32;;;;;;;11.52;10.43;;;;;;;26.00;59.30;100271.25;5087178;28;20403;-28
2022/06/18 08:26:59;;;;;;;12.75;10.30;;;;;;;26.69;59.80;100258.03;5087265;28;20032;-29
2022/06/18 08:29:25;;;;;;;12.03;10.40;;;;;;;27.14;56.04;100263.94;5087153;28;20020;-29
2022/06/18 08:31:51;;;;;;;10.88;9.77;;;;;;;26.55;58.86;100249.97;5086750;28;20266;-29
2022/06/18 08:34:16;;;;;;;10.13;9.02;;;;;;;26.29;56.69;100264.41;5088715;28;20142;-30
2022/06/18 08:36:43;;;;;;;10.63;8.80;;;;;;;26.29;57.13;100234.34;5088419;28;20695;-35
2022/06/18 08:39:09;;;;;;;12.07;9.07;;;;;;;26.49;56.71;100243.03;5086736;28;20120;-29
2022/06/18 08:41:48;;;;;;;11.60;10.38;;;;;;;27.03;60.34;100262.66;5086940;28;20035;-28
2022/06/18 08:44:26;;;;;;;15.75;9.27;;;;;;;27.39;56.27;100265.00;5086036;28;20048;-29
2022/06/18 08:47:04;;;;;;;9.60;8.60;;;;;;;26.93;53.83;100252.03;5086844;28;20641;-32
2022/06/18 08:49:38;;;;;;;11.38;8.10;;;;;;;26.71;53.59;100270.25;5086657;28;20020;-28
2022/06/18 08:52:35;;;;;;;8.43;7.53;;;;;;;26.74;55.72;100266.88;5088155;28;20089;-33
2022/06/18 08:55:13;;;;;;;11.37;7.80;;;;;;;26.65;55.13;100258.66;5088030;28;20480;-32
2022/06/18 08:57:54;;;;;;;12.80;10.10;;;;;;;26.93;54.85;100246.56;5086616;28;20024;-30
2022/06/18 09:00:36;;;;;;;9.80;8.35;;;;;;;27.07;55.82;100252.66;5086353;28;20040;-29
2022/06/18 09:03:06;;;;;;;9.25;8.23;;;;;;;26.59;57.05;100253.69;5087558;28;20032;-32
2022/06/18 09:05:34;;;;;;;14.55;7.88;;;;;;;26.22;56.45;100264.09;5086511;28;20048;-31
2022/06/18 09:08:10;;;;;;;12.35;7.72;;;;;;;26.52;56.04;100269.72;5088237;28;20457;-32
2022/06/18 09:10:54;;;;;;;10.70;7.32;;;;;;;26.60;54.33;100261.59;5086788;28;20092;-28
2022/06/18 09:13:34;;;;;;;11.18;7.22;;;;;;;26.53;54.91;100260.41;5087662;28;20051;-29
2022/06/18 09:16:04;;;;;;;8.45;7.20;;;;;;;26.99;53.67;100250.75;5086282;28;20030;-29
2022/06/18 09:18:34;;;;;;;10.43;7.38;;;;;;;26.76;53.76;100245.47;5087693;28;20403;-29
2022/06/18 09:21:07;;;;;;;9.02;6.63;;;;;;;27.18;52.90;100242.97;5086165;28;20117;-28
2022/06/18 09:23:39;;;;;;;10.27;7.22;;;;;;;27.12;54.31;100257.97;5086193;28;20511;-32
2022/06/18 09:26:11;;;;;;;9.38;6.88;;;;;;;27.80;53.20;100251.78;5087553;28;20505;-29
2022/06/18 09:28:53;;;;;;;7.90;6.72;;;;;;;27.56;52.04;100255.91;5086294;28;20173;-32
2022/06/18 09:31:40;;;;;;;8.43;6.35;;;;;;;27.41;55.51;100245.50;5086099;28;20032;-35
2022/06/18 09:34:13;;;;;;;7.50;6.50;;;;;;;27.38;51.14;100230.56;5087440;28;20024;-29
2022/06/18 09:36:52;;;;;;;8.60;6.40;;;;;;;26.67;54.76;100249.34;5086378;28;20032;-28
2022/06/18 09:39:26;;;;;;;10.25;6.63;;;;;;;26.78;54.81;100226.00;5087213;28;20024;-32
2022/06/18 09:41:56;;;;;;;19.83;8.15;;;;;;;27.09;55.72;100252.34;5085793;28;20048;-31
2022/06/18 09:44:22;;;;;;;11.82;7.03;;;;;;;27.82;52.91;100247.56;5087047;28;20020;-35
2022/06/18 09:47:10;;;;;;;8.65;6.18;;;;;;;27.92;50.76;100256.59;5087440;28;20046;-34
2022/06/18 09:49:36;;;;;;;10.07;6.03;;;;;;;27.69;50.73;100245.09;5085756;28;20549;-34
2022/06/18 09:52:06;;;;;;;7.03;6.32;;;;;;;28.33;50.95;100261.31;5085740;28;20039;-34
2022/06/18 09:54:55;;;;;;;7.90;6.10;;;;;;;28.11;51.74;100272.59;5085692;28;20345;-32
2022/06/18 09:57:25;;;;;;;8.23;6.13;;;;;;;28.08;50.95;100265.06;5084528;28;20212;-33
2022/06/18 10:00:08;;;;;;;10.38;6.82;;;;;;;27.12;52.61;100273.59;5085620;28;20035;-32
2022/06/18 10:02:38;;;;;;;19.38;8.77;;;;;;;26.59;57.29;100291.97;5086932;28;20770;-30
2022/06/18 10:07:55;;;;;;;13.52;7.60;;;;;;;26.01;66.55;100297.50;5087010;28;20101;-30
2022/06/18 10:10:25;;;;;;;14.25;7.70;;;;;;;25.07;66.53;100288.47;5085158;28;20032;-29
2022/06/18 10:12:57;;;;;;;10.75;7.80;;;;;;;23.29;71.46;100296.44;5085037;28;20427;-32
2022/06/18 10:15:24;;;;;;;18.60;9.80;;;;;;;22.11;77.50;100292.66;5086399;28;20036;-32
2022/06/18 10:18:21;;;;;;;34.58;11.38;;;;;;;21.31;82.58;100299.41;5084995;28;20835;-31
2022/06/18 10:20:52;;;;;;;15.40;9.27;;;;;;;20.20;87.45;100303.34;5086813;28;20107;-31
2022/06/18 10:23:30;;;;;;;12.32;9.02;;;;;;;19.69;90.52;100309.69;5084721;28;20304;-38
2022/06/18 10:26:14;;;;;;;;;;;;;;;19.51;95.18;100330.00;5085301;28;20068;-33
2022/06/18 10:29:02;;;;;;;17.95;10.00;;;;;;;19.34;96.38;100334.91;5086256;28;19919;-37
2022/06/18 10:32:01;;;;;;;15.23;9.55;;;;;;;19.51;93.09;100357.06;5084286;28;20032;-35
2022/06/18 10:34:59;;;;;;;21.67;12.63;;;;;;;19.53;100.00;100354.09;5084558;28;20086;-35
2022/06/18 10:37:28;;;;;;;9.85;4.85;;;;;;;19.26;91.39;100342.44;5086103;28;20093;-35
2022/06/18 10:40:04;;;;;;;17.50;8.85;;;;;;;19.30;100.00;100312.19;5085625;28;20039;-36
2022/06/18 10:42:56;;;;;;;27.63;17.75;;;;;;;19.37;100.00;100318.94;5084495;28;20511;-35
2022/06/18 10:45:39;;;;;;;17.25;10.50;;;;;;;19.41;100.00;100316.50;5073782;28;20064;-34
2022/06/18 10:48:18;;;;;;;14.85;11.88;;;;;;;19.75;100.00;100297.00;5084121;28;20074;-40
2022/06/18 10:50:50;;;;;;;13.18;10.98;;;;;;;19.67;100.00;100304.56;5084529;28;20035;-34
2022/06/18 10:53:18;;;;;;;14.55;9.82;;;;;;;19.97;100.00;100321.03;5085447;28;20024;-35
2022/06/18 10:55:44;;;;;;;18.08;10.50;;;;;;;20.03;100.00;100326.16;5085475;28;20032;-33
2022/06/18 10:58:15;;;;;;;17.65;11.00;;;;;;;19.94;100.00;100317.00;5067295;28;20032;-32
2022/06/18 11:00:54;;;;;;;32.65;12.73;;;;;;;19.96;100.00;100335.66;5085797;28;20036;-33
2022/06/18 11:22:28;;;;;;;16.78;5.48;;;;;;;17.53;100.00;100335.25;4995559;27;8304638;-33
2022/06/18 11:25:00;;;;;;;14.27;4.47;;;;;;;17.78;94.96;100320.31;5073012;28;20732;-35
2022/06/18 11:27:32;;;;;;;10.13;4.82;;;;;;;18.37;100.00;100346.25;5062511;28;20039;-35
2022/06/18 11:29:58;;;;;;;10.70;6.65;;;;;;;18.16;100.00;100343.47;5061819;28;20028;-36
2022/06/18 11:32:29;;;;;;;109.63;22.75;;;;;;;18.24;100.00;100348.38;5061955;28;20502;-32
2022/06/18 11:35:13;;;;;;;12.55;8.55;;;;;;;18.15;100.00;100344.56;5061839;28;20029;-37
2022/06/18 11:37:40;;;;;;;9.63;6.20;;;;;;;18.25;95.62;100330.31;5063231;28;20500;-34
2022/06/18 11:40:05;;;;;;;11.27;6.80;;;;;;;18.29;96.21;100326.00;5061300;28;20025;-32
2022/06/18 11:42:39;;;;;;;6.68;4.80;;;;;;;18.58;88.26;100325.56;5061551;28;20032;-30
2022/06/18 11:45:23;;;;;;;8.20;5.65;;;;;;;18.59;90.61;100346.09;5061201;28;20456;-38
2022/06/18 11:47:52;;;;;;;7.30;4.57;;;;;;;18.95;89.34;100340.81;5060950;28;20040;-36
2022/06/18 11:50:17;;;;;;;8.20;5.82;;;;;;;19.26;93.46;100328.13;5061122;28;20032;-32
2022/06/18 11:53:16;;;;;;;11.18;8.43;;;;;;;19.61;91.85;100329.19;5062618;28;20070;-33
2022/06/18 11:55:51;;;;;;;13.20;9.52;;;;;;;19.83;94.76;100343.25;5061214;28;20039;-34
2022/06/18 11:58:19;;;;;;;15.35;11.25;;;;;;;20.16;97.46;100329.38;5062286;28;20068;-32